Jervis Bay, Australia
Current Conditions -  °F | °C
As of 11:00 AM on Thursday 29 Jan 2015 (Local Time) from YSNW Reporting Station
Scattered Clouds Scattered Clouds  
Wind Chill: 66°   Ceiling: Unl
Heat Index: 66°   Visibility: 6mi
Dew Point: 46°   Wind: 18mph
Humidity: 49%   Direction: 210°SSW
Pressure: 29.91"   Gusts: NA
Location:  35.13°S, 150.71°E
Report Text: YSNW 290000Z 21016KT 9999 SCT044 19/08 Q1013 FM0000 MOD TURB BLW 5000FT
Loading
Personal Weather Stations






























Interactive Weather Map New forecast layout! Learn more

10-Day Weather Forecast

Advertisements
Track Severe Weather on mobile